x

South Santa Rosa Is. Ca (46069) Wave Buoy

2:50 - Thu 27th Nov 2014 All times are PST. -8 hours from GMT.

  • Sig Wave height 2.6ft
  • Peak Period 13s
  • Average Period 5s
  • Wind
    11mph, 13mph gusts
  • Sea Temp 64°f
  • Ar Temp 63°f
  • Sea Pressure 1016.1mb
  • South Santa Rosa Is. Ca
  • South Santa Rosa Is. Ca

More Historic Weather Station data

Upgrade to MSW Pro to gain access to the past 30 days of data for over 8000 Wavebouys and Weather Stations around the globe.

Join Pro

Comparision Forecast

View Surf forecast
   
Qui 11/27 2:50 2.5ft 13s 5s 11 13 mph 1016.1mb 64f 63f
1:50 2.5ft 11s 5s 11
mph
1016.4mb 64f 63f
12:50 2.5ft 11s 6s 9 11 mph 1017mb 63f 63f
11:50 2.5ft 11s 6s 9
mph
1017.9mb 63f 63f
10:50 2.5ft 11s 6s 9 11 mph 1018.8mb 63f 63f
9:50 2.5ft 12s 7s 11
mph
1019.1mb 63f 63f
8:50 2.5ft 11s 6s 11 13 mph 1019.1mb 63f 63f
7:50 2.5ft 12s 6s 11 13 mph 1018.7mb 63f 62f
6:50 2.5ft 12s 6s 9 11 mph 1018.5mb 63f 62f
5:50 2.5ft 11s 6s 9 11 mph 1018.1mb 63f 62f
4:50 3.5ft 12s 5s 13
mph
1018mb 63f 62f
3:50 3.5ft 13s 5s 16 18 mph 1018.1mb 63f 63f
2:50 3.5ft 11s 5s 16 18 mph 1018.2mb 63f 64f
1:50 3.5ft 12s 5s 16 18 mph 1018.6mb 63f 64f
12:50 3.5ft 11s 5s 13 18 mph 1019mb 63f 64f
Qua 11/26 11:50 3.5ft 12s 5s 16 18 mph 1019.8mb 63f 64f
10:50 3.5ft 12s 5s 16 18 mph 1020.1mb 63f 64f
9:50 3.5ft 11s 6s 16 18 mph 1020.3mb 63f 64f
8:50 3.5ft 11s 6s 16 18 mph 1020.1mb 63f 63f
7:50 3.5ft 12s 7s 13 18 mph 1020.1mb 63f 63f
6:50 4ft 13s 8s 11
mph
1020.1mb 64f 63f
5:50 3.5ft 11s 8s 13 16 mph 1020.1mb 64f 63f
4:50 4ft 12s 9s 11 13 mph 1020.4mb 64f 64f
3:50 4ft 13s 9s 7 9 mph 1020.4mb 65f 64f
2:50 4ft 13s 9s 4
mph
1020.6mb 65f 65f
1:50 4ft 12s 9s 4
mph
1020.8mb 64f 64f
12:50 4ft 12s 9s 4
mph
1021.2mb 64f 63f
11:50 4.5ft 13s 9s 4
mph
1022.2mb 64f 63f
10:50 4.5ft 13s 9s 4
mph
1023.1mb 63f 62f
9:50 5ft 14s 10s 2 4 mph 1023.5mb 63f 62f
8:50 5ft 14s 10s 7
mph
1023.3mb 63f 62f
7:50 4.5ft 13s 9s 7 9 mph 1023.1mb 63f 62f
6:50 4ft 11s 9s 7 9 mph 1022.7mb 63f 62f
5:50 4.5ft 13s 9s 9 11 mph 1022.4mb 63f 62f
4:50 4.5ft 14s 9s 9 11 mph 1022.3mb 63f 62f
3:50 4.5ft 14s 9s 11 13 mph 1022.3mb 63f 62f
2:50 5ft 14s 9s 9 11 mph 1023.1mb 63f 62f
1:50 5.5ft 12s 9s 11
mph
1023.4mb 63f 62f
12:50 6ft 14s 10s 11 13 mph 1023.7mb 63f 62f
Ter 11/25 11:50 5.5ft 13s 10s 11 13 mph 1024.2mb 63f 62f
10:50 5.5ft 13s 10s 11 13 mph 1024.5mb 63f 63f
9:50 6.5ft 13s 10s 11 16 mph 1025mb 63f 63f
8:50 5.5ft 14s 10s 11 13 mph 1025mb 63f 63f
7:50 6ft 14s 11s 11 13 mph 1025.2mb 64f 63f
6:50 6ft 12s 10s 9 11 mph 1025.1mb 64f 63f
5:50 5ft 14s 10s 7 9 mph 1025.1mb 64f 63f
4:50 5ft 15s 9s 7 9 mph 1025.1mb 65f 64f
3:50 5ft 15s 9s 4 7 mph 1025mb 65f 65f
2:50 5ft 14s 9s 4
mph
1025.4mb 65f 66f
1:50 6ft 14s 10s 2 4 mph 1025.8mb 65f 65f
12:50 5ft 14s 8s  -  2 mph 1026.3mb 64f 66f
11:50 6ft 14s 9s 4
mph
1026.8mb 63f 64f
10:50 6ft 14s 9s 4 9 mph 1027.9mb 63f 64f
9:50 6ft 11s 9s 7 9 mph 1028.2mb 63f 64f
8:50 7ft 13s 9s 7 9 mph 1028.2mb 63f 64f
7:50 6.5ft 13s 9s 9 11 mph 1027.8mb 63f 64f
6:50 7ft 14s 9s 9 11 mph 1027.2mb 63f 64f
5:50 7ft 14s 9s 7 9 mph 1026.8mb 63f 65f
4:50 7.5ft 14s 9s 4 7 mph 1026.4mb 63f 65f
3:50 8ft 14s 10s 9 11 mph 1026mb 63f 65f
1:50 7.5ft 14s 9s 4
mph
1025.9mb 63f 66f
12:50 6.5ft 14s 8s 4
mph
1025.6mb 63f 65f
Seg 11/24 11:50 7ft 14s 9s 4 7 mph 1025.8mb 63f 64f
10:50 7.5ft 14s 9s 4 7 mph 1025.7mb 63f 63f
9:50 8ft 14s 9s 7 9 mph 1025.4mb 63f 64f
8:50 7.5ft 13s 8s 9 11 mph 1025mb 63f 64f
6:50 7ft 15s 8s 11 13 mph 1024.2mb 63f 64f
5:50 7ft 13s 8s 13 16 mph 1023.2mb 63f 64f
4:50 6.5ft 13s 8s 11 13 mph 1022.9mb 63f 63f
3:50 7ft 13s 8s 11 13 mph 1022.5mb 63f 64f
2:50 7ft 13s 8s 13 16 mph 1022.5mb 63f 63f
1:50 7ft 14s 8s 11 13 mph 1022.6mb 63f 63f
12:50 8.5ft 13s 8s 11 13 mph 1022.9mb 63f 63f
11:50 8ft 13s 7s 9 11 mph 1023.7mb 63f 63f
10:50 8ft 13s 8s 11 13 mph 1024.1mb 63f 63f
9:50 8.5ft 13s 8s 11 16 mph 1023.7mb 62f 63f
8:50 7.5ft 14s 7s 18 22 mph 1022.9mb 62f 63f
7:50 8ft 14s 7s 20 25 mph 1022mb 62f 63f
6:50 8.5ft 14s 7s 22 25 mph 1021.3mb 62f 62f
5:50 8.5ft 14s 7s 20 25 mph 1020.8mb 62f 63f
4:50 7.5ft 14s 6s 22 27 mph 1020.5mb 62f 63f
3:50 8ft 14s 6s 22 29 mph 1020.6mb 62f 63f
2:50 8ft 14s 7s 27 31 mph 1020.4mb 62f 63f
1:50 8.5ft 14s 7s 25 31 mph 1020.3mb 62f 63f
12:50 8ft 14s 6s 25 29 mph 1020.5mb 62f 63f
Dom 11/23 11:50 9ft 14s 7s 22 27 mph 1020.6mb 62f 64f